^^

Weather Underground History

Daily Summary for July 6, 2019 Units:  Metric    English   Both
Daily Weekly Monthly Yearly
  High: Low: Average:
Temperature: 11 °C 3 °C 7.3 °C
Dew Point: 5 °C 1 °C 3.1 °C
Humidity: 90% 56% 76%
Wind Speed: 13km/h 0km/h 5.3km/h
Wind Gust: 23km/h - -
Wind- - WSW
Pressure: 1022.1 hPa 1018.2 hPa -
Precipitation: 0.0 mm    
 
 
Tabular Data for July 6, 2019
Time Temperature Dew Point Pressure Wind Wind Speed Wind Gust Humidity Rainfall Rate (Hourly) solar
00:04 5 °C 2 °C 1022.1 hPa Calm     80% 0.0 mm 0 W/m2
00:09 4 °C 2 °C 1022.0 hPa Calm     80% 0.0 mm 0 W/m2
00:14 4 °C 2 °C 1022.0 hPa Calm     81% 0.0 mm 0 W/m2
00:19 4 °C 1 °C 1022.1 hPa Calm     81% 0.0 mm 0 W/m2
00:24 4 °C 1 °C 1022.0 hPa Calm     81% 0.0 mm 0 W/m2
00:29 4 °C 1 °C 1022.0 hPa Calm     82% 0.0 mm 0 W/m2
00:34 4 °C 1 °C 1022.0 hPa Calm     82% 0.0 mm 0 W/m2
00:39 4 °C 1 °C 1022.0 hPa Calm     83% 0.0 mm 0 W/m2
00:44 4 °C 1 °C 1021.9 hPa Calm     83% 0.0 mm 0 W/m2
00:49 4 °C 1 °C 1021.9 hPa Calm     84% 0.0 mm 0 W/m2
00:54 4 °C 1 °C 1021.9 hPa Calm     84% 0.0 mm 0 W/m2
00:59 4 °C 1 °C 1021.8 hPa Calm     84% 0.0 mm 0 W/m2
01:04 3 °C 1 °C 1021.8 hPa Calm     85% 0.0 mm 0 W/m2
01:09 3 °C 1 °C 1021.7 hPa Calm     85% 0.0 mm 0 W/m2
01:14 3 °C 1 °C 1021.8 hPa Calm     85% 0.0 mm 0 W/m2
01:19 3 °C 2 °C 1021.8 hPa Calm     86% 0.0 mm 0 W/m2
01:24 3 °C 2 °C 1021.7 hPa Calm     86% 0.0 mm 0 W/m2
01:29 3 °C 2 °C 1021.6 hPa Calm     86% 0.0 mm 0 W/m2
01:34 3 °C 2 °C 1021.5 hPa Calm     86% 0.0 mm 0 W/m2
01:39 3 °C 2 °C 1021.5 hPa Calm   2 km/h 86% 0.0 mm 0 W/m2
01:44 3 °C 2 °C 1021.5 hPa Calm     86% 0.0 mm 0 W/m2
01:49 3 °C 2 °C 1021.5 hPa Calm     86% 0.0 mm 0 W/m2
01:54 3 °C 2 °C 1021.5 hPa Calm     86% 0.0 mm 0 W/m2
01:59 3 °C 2 °C 1021.5 hPa Calm     86% 0.0 mm 0 W/m2
02:04 3 °C 2 °C 1021.5 hPa Calm     87% 0.0 mm 0 W/m2
02:09 4 °C 2 °C 1021.4 hPa Calm     87% 0.0 mm 0 W/m2
02:14 4 °C 2 °C 1021.5 hPa Calm     87% 0.0 mm 0 W/m2
02:19 4 °C 2 °C 1021.4 hPa WNW 2 km/h 8 km/h 87% 0.0 mm 0 W/m2
02:24 4 °C 2 °C 1021.4 hPa WNW 3 km/h 8 km/h 88% 0.0 mm 0 W/m2
02:29 4 °C 3 °C 1021.3 hPa WNW 4 km/h 8 km/h 88% 0.0 mm 0 W/m2
02:34 5 °C 3 °C 1021.3 hPa WNW 5 km/h 11 km/h 87% 0.0 mm 0 W/m2
02:39 5 °C 3 °C 1021.3 hPa WNW 5 km/h 8 km/h 86% 0.0 mm 0 W/m2
02:44 6 °C 3 °C 1021.3 hPa WNW 5 km/h 10 km/h 85% 0.0 mm 0 W/m2
02:49 6 °C 3 °C 1021.3 hPa WNW 2 km/h 10 km/h 84% 0.0 mm 0 W/m2
02:54 6 °C 3 °C 1021.3 hPa WNW 5 km/h 11 km/h 84% 0.0 mm 0 W/m2
02:59 6 °C 3 °C 1021.3 hPa NW 3 km/h 11 km/h 83% 0.0 mm 0 W/m2
03:04 6 °C 3 °C 1021.2 hPa NW 3 km/h 10 km/h 83% 0.0 mm 0 W/m2
03:09 6 °C 3 °C 1021.2 hPa NW 3 km/h 8 km/h 83% 0.0 mm 0 W/m2
03:14 6 °C 3 °C 1021.1 hPa NW 6 km/h 11 km/h 83% 0.0 mm 0 W/m2
03:19 6 °C 3 °C 1021.1 hPa NW 3 km/h 10 km/h 82% 0.0 mm 0 W/m2
03:24 6 °C 3 °C 1021.1 hPa NW 4 km/h 11 km/h 82% 0.0 mm 0 W/m2
03:29 6 °C 3 °C 1021.1 hPa WNW 5 km/h 11 km/h 82% 0.0 mm 0 W/m2
03:34 6 °C 3 °C 1021.1 hPa NNW 4 km/h 10 km/h 82% 0.0 mm 0 W/m2
03:39 6 °C 3 °C 1021.1 hPa WNW 5 km/h 8 km/h 83% 0.0 mm 0 W/m2
03:44 6 °C 3 °C 1021.1 hPa WNW 5 km/h 10 km/h 83% 0.0 mm 0 W/m2
03:49 6 °C 3 °C 1021.1 hPa WNW 4 km/h 10 km/h 83% 0.0 mm 0 W/m2
03:54 6 °C 3 °C 1021.1 hPa WNW 8 km/h 16 km/h 82% 0.0 mm 0 W/m2
03:59 6 °C 3 °C 1021.0 hPa WNW 6 km/h 14 km/h 82% 0.0 mm 0 W/m2
04:04 6 °C 3 °C 1021.0 hPa WNW 5 km/h 11 km/h 82% 0.0 mm 0 W/m2
04:09 6 °C 3 °C 1021.0 hPa WNW 7 km/h 14 km/h 82% 0.0 mm 0 W/m2
04:14 6 °C 3 °C 1021.0 hPa West 5 km/h 11 km/h 82% 0.0 mm 0 W/m2
04:19 6 °C 3 °C 1020.9 hPa WNW 6 km/h 11 km/h 82% 0.0 mm 0 W/m2
04:24 6 °C 3 °C 1020.8 hPa WNW 6 km/h 10 km/h 82% 0.0 mm 0 W/m2
04:29 6 °C 3 °C 1020.8 hPa WNW 3 km/h 10 km/h 82% 0.0 mm 0 W/m2
04:34 6 °C 2 °C 1020.8 hPa WNW 2 km/h 8 km/h 82% 0.0 mm 0 W/m2
04:39 5 °C 2 °C 1020.8 hPa WNW 5 km/h 13 km/h 82% 0.0 mm 0 W/m2
04:44 5 °C 2 °C 1020.8 hPa WNW 6 km/h 13 km/h 82% 0.0 mm 0 W/m2
04:49 5 °C 2 °C 1020.7 hPa WNW 6 km/h 11 km/h 82% 0.0 mm 0 W/m2
04:54 5 °C 2 °C 1020.7 hPa WNW 4 km/h 11 km/h 82% 0.0 mm 0 W/m2
04:59 5 °C 2 °C 1020.6 hPa WNW 6 km/h 11 km/h 82% 0.0 mm 0 W/m2
05:04 5 °C 2 °C 1020.6 hPa WNW 7 km/h 16 km/h 82% 0.0 mm 0 W/m2
05:09 5 °C 2 °C 1020.6 hPa WNW 5 km/h 16 km/h 81% 0.0 mm 0 W/m2
05:14 5 °C 2 °C 1020.6 hPa WNW 4 km/h 11 km/h 81% 0.0 mm 0 W/m2
05:19 5 °C 2 °C 1020.6 hPa NW 7 km/h 13 km/h 82% 0.0 mm 0 W/m2
05:24 5 °C 2 °C 1020.6 hPa NW 6 km/h 13 km/h 82% 0.0 mm 0 W/m2
05:29 5 °C 2 °C 1020.5 hPa WNW 6 km/h 11 km/h 82% 0.0 mm 0 W/m2
05:34 5 °C 2 °C 1020.5 hPa WNW 6 km/h 10 km/h 82% 0.0 mm 0 W/m2
05:39 5 °C 2 °C 1020.5 hPa WNW 6 km/h 13 km/h 82% 0.0 mm 0 W/m2
05:44 5 °C 2 °C 1020.4 hPa WNW 8 km/h 14 km/h 81% 0.0 mm 0 W/m2
05:49 5 °C 2 °C 1020.4 hPa WNW 7 km/h 13 km/h 81% 0.0 mm 5 W/m2
05:54 5 °C 2 °C 1020.4 hPa WNW 5 km/h 11 km/h 81% 0.0 mm 7 W/m2
05:59 5 °C 2 °C 1020.4 hPa WNW 7 km/h 13 km/h 81% 0.0 mm 9 W/m2
06:04 5 °C 2 °C 1020.4 hPa NW 5 km/h 13 km/h 81% 0.0 mm 12 W/m2
06:09 5 °C 2 °C 1020.4 hPa NW 6 km/h 11 km/h 81% 0.0 mm 18 W/m2
06:14 5 °C 2 °C 1020.4 hPa NW 7 km/h 11 km/h 81% 0.0 mm 19 W/m2
06:19 5 °C 2 °C 1020.4 hPa WNW 7 km/h 13 km/h 80% 0.0 mm 19 W/m2
06:24 5 °C 2 °C 1020.5 hPa WNW 5 km/h 13 km/h 80% 0.0 mm 21 W/m2
06:29 5 °C 2 °C 1020.5 hPa WNW 7 km/h 13 km/h 80% 0.0 mm 25 W/m2
06:34 5 °C 2 °C 1020.4 hPa WNW 6 km/h 11 km/h 80% 0.0 mm 26 W/m2
06:39 5 °C 2 °C 1020.4 hPa WNW 8 km/h 13 km/h 80% 0.0 mm 30 W/m2
06:44 5 °C 2 °C 1020.4 hPa WNW 7 km/h 13 km/h 80% 0.0 mm 33 W/m2
06:49 5 °C 2 °C 1020.4 hPa WNW 7 km/h 14 km/h 80% 0.0 mm 35 W/m2
06:54 5 °C 2 °C 1020.4 hPa WNW 7 km/h 14 km/h 80% 0.0 mm 39 W/m2
06:59 5 °C 2 °C 1020.4 hPa WNW 6 km/h 13 km/h 80% 0.0 mm 46 W/m2
07:04 6 °C 2 °C 1020.4 hPa WNW 9 km/h 18 km/h 80% 0.0 mm 47 W/m2
07:09 6 °C 2 °C 1020.4 hPa NW 6 km/h 18 km/h 80% 0.0 mm 51 W/m2
07:14 6 °C 2 °C 1020.4 hPa WNW 6 km/h 13 km/h 80% 0.0 mm 60 W/m2
07:19 6 °C 2 °C 1020.4 hPa West 5 km/h 16 km/h 80% 0.0 mm 72 W/m2
07:24 6 °C 2 °C 1020.3 hPa West 6 km/h 16 km/h 80% 0.0 mm 77 W/m2
07:29 6 °C 2 °C 1020.3 hPa WNW 6 km/h 13 km/h 80% 0.0 mm 84 W/m2
07:34 6 °C 2 °C 1020.3 hPa WNW 8 km/h 14 km/h 79% 0.0 mm 91 W/m2
07:39 6 °C 2 °C 1020.2 hPa WNW 8 km/h 14 km/h 79% 0.0 mm 95 W/m2
07:44 6 °C 2 °C 1020.2 hPa WNW 8 km/h 16 km/h 79% 0.0 mm 97 W/m2
07:49 6 °C 2 °C 1020.2 hPa WNW 9 km/h 18 km/h 79% 0.0 mm 98 W/m2
07:54 6 °C 2 °C 1020.3 hPa WNW 9 km/h 18 km/h 78% 0.0 mm 104 W/m2
07:59 6 °C 2 °C 1020.3 hPa WNW 9 km/h 18 km/h 78% 0.0 mm 111 W/m2
08:04 6 °C 2 °C 1020.1 hPa West 7 km/h 14 km/h 78% 0.0 mm 114 W/m2
08:09 6 °C 2 °C 1020.1 hPa WNW 6 km/h 14 km/h 78% 0.0 mm 134 W/m2
08:14 6 °C 3 °C 1020.1 hPa WNW 7 km/h 14 km/h 79% 0.0 mm 158 W/m2
08:19 6 °C 3 °C 1020.1 hPa WNW 7 km/h 18 km/h 78% 0.0 mm 172 W/m2
08:24 6 °C 3 °C 1020.1 hPa West 7 km/h 13 km/h 78% 0.0 mm 206 W/m2
08:29 6 °C 3 °C 1020.1 hPa WNW 7 km/h 13 km/h 78% 0.0 mm 348 W/m2
08:34 7 °C 3 °C 1020.1 hPa WNW 10 km/h 21 km/h 77% 0.0 mm 626 W/m2
08:39 7 °C 3 °C 1020.2 hPa WNW 10 km/h 16 km/h 76% 0.0 mm 626 W/m2
08:44 7 °C 3 °C 1020.1 hPa WNW 7 km/h 16 km/h 74% 0.0 mm 575 W/m2
08:49 8 °C 3 °C 1020.1 hPa West 10 km/h 18 km/h 73% 0.0 mm 534 W/m2
08:54 8 °C 3 °C 1020.1 hPa WNW 6 km/h 14 km/h 72% 0.0 mm 541 W/m2
08:59 8 °C 3 °C 1020.0 hPa WNW 8 km/h 16 km/h 72% 0.0 mm 555 W/m2
09:04 8 °C 3 °C 1020.0 hPa WNW 9 km/h 16 km/h 71% 0.0 mm 559 W/m2
09:09 8 °C 3 °C 1020.0 hPa WNW 8 km/h 16 km/h 71% 0.0 mm 587 W/m2
09:14 8 °C 3 °C 1020.0 hPa WNW 9 km/h 18 km/h 71% 0.0 mm 659 W/m2
09:19 8 °C 3 °C 1020.0 hPa WNW 11 km/h 23 km/h 71% 0.0 mm 759 W/m2
09:24 8 °C 4 °C 1020.0 hPa West 9 km/h 23 km/h 71% 0.0 mm 819 W/m2
09:29 9 °C 4 °C 1020.0 hPa WNW 9 km/h 14 km/h 72% 0.0 mm 819 W/m2
09:34 9 °C 3 °C 1020.0 hPa WNW 10 km/h 19 km/h 69% 0.0 mm 515 W/m2
09:39 8 °C 4 °C 1020.0 hPa WNW 7 km/h 16 km/h 71% 0.0 mm 817 W/m2
09:44 9 °C 3 °C 1020.0 hPa NW 9 km/h 18 km/h 69% 0.0 mm 654 W/m2
09:49 9 °C 4 °C 1020.0 hPa WNW 7 km/h 18 km/h 70% 0.0 mm 575 W/m2
09:54 9 °C 3 °C 1020.0 hPa West 10 km/h 18 km/h 69% 0.0 mm 643 W/m2
09:59 9 °C 4 °C 1020.0 hPa WNW 8 km/h 14 km/h 71% 0.0 mm 715 W/m2
10:04 9 °C 4 °C 1020.0 hPa WNW 10 km/h 18 km/h 70% 0.0 mm 555 W/m2
10:09 9 °C 3 °C 1020.0 hPa WNW 9 km/h 18 km/h 70% 0.0 mm 631 W/m2
10:14 9 °C 3 °C 1020.0 hPa WNW 10 km/h 18 km/h 69% 0.0 mm 448 W/m2
10:19 8 °C 3 °C 1020.1 hPa WNW 10 km/h 16 km/h 68% 0.0 mm 485 W/m2
10:24 9 °C 4 °C 1020.0 hPa West 9 km/h 16 km/h 71% 0.0 mm 485 W/m2
10:29 9 °C 4 °C 1020.1 hPa West 10 km/h 21 km/h 71% 0.0 mm 663 W/m2
10:34 9 °C 4 °C 1020.1 hPa West 10 km/h 16 km/h 71% 0.0 mm 476 W/m2
10:39 8 °C 3 °C 1020.1 hPa West 8 km/h 16 km/h 70% 0.0 mm 510 W/m2
10:44 8 °C 4 °C 1020.1 hPa West 8 km/h 16 km/h 71% 0.0 mm 492 W/m2
10:49 9 °C 4 °C 1020.1 hPa West 8 km/h 16 km/h 71% 0.0 mm 598 W/m2
10:54 9 °C 4 °C 1020.1 hPa WNW 8 km/h 14 km/h 70% 0.0 mm 875 W/m2
10:59 9 °C 4 °C 1020.0 hPa WNW 8 km/h 16 km/h 70% 0.0 mm 875 W/m2
11:04 9 °C 4 °C 1020.0 hPa West 10 km/h 18 km/h 69% 0.0 mm 466 W/m2
11:09 9 °C 3 °C 1020.0 hPa West 8 km/h 18 km/h 68% 0.0 mm 466 W/m2
11:14 9 °C 3 °C 1020.0 hPa West 8 km/h 19 km/h 68% 0.0 mm 710 W/m2
11:19 9 °C 4 °C 1020.0 hPa WNW 7 km/h 16 km/h 70% 0.0 mm 798 W/m2
11:24 9 °C 4 °C 1020.0 hPa West 11 km/h 18 km/h 70% 0.0 mm 998 W/m2
11:29 9 °C 4 °C 1019.9 hPa West 10 km/h 19 km/h 69% 0.0 mm 998 W/m2
11:34 9 °C 4 °C 1020.0 hPa WNW 8 km/h 16 km/h 67% 0.0 mm 499 W/m2
11:39 9 °C 4 °C 1020.0 hPa West 9 km/h 16 km/h 68% 0.0 mm 1071 W/m2
11:44 10 °C 4 °C 1019.9 hPa West 11 km/h 19 km/h 68% 0.0 mm 1032 W/m2
11:49 9 °C 4 °C 1019.9 hPa West 7 km/h 18 km/h 67% 0.0 mm 1007 W/m2
11:54 9 °C 4 °C 1019.8 hPa West 6 km/h 13 km/h 68% 0.0 mm 1092 W/m2
11:59 10 °C 4 °C 1019.8 hPa WSW 6 km/h 14 km/h 68% 0.0 mm 1132 W/m2
12:04 10 °C 4 °C 1019.8 hPa SW 8 km/h 14 km/h 67% 0.0 mm 1179 W/m2
12:09 10 °C 4 °C 1019.8 hPa SW 5 km/h 10 km/h 65% 0.0 mm 647 W/m2
12:14 10 °C 4 °C 1019.8 hPa WSW 6 km/h 13 km/h 65% 0.0 mm 647 W/m2
12:19 10 °C 3 °C 1019.8 hPa West 4 km/h 13 km/h 63% 0.0 mm 524 W/m2
12:24 10 °C 3 °C 1019.7 hPa WNW 5 km/h 13 km/h 62% 0.0 mm 443 W/m2
12:29 10 °C 3 °C 1019.8 hPa NW 1 km/h 13 km/h 62% 0.0 mm 371 W/m2
12:34 10 °C 3 °C 1019.8 hPa NW 1 km/h 5 km/h 63% 0.0 mm 329 W/m2
12:39 10 °C 3 °C 1019.8 hPa NW 2 km/h 8 km/h 61% 0.0 mm 308 W/m2
12:44 10 °C 2 °C 1019.7 hPa NW 3 km/h 10 km/h 60% 0.0 mm 292 W/m2
12:49 9 °C 2 °C 1019.8 hPa NW 3 km/h 10 km/h 59% 0.0 mm 283 W/m2
12:54 9 °C 2 °C 1019.7 hPa NW 1 km/h 5 km/h 58% 0.0 mm 283 W/m2
12:59 9 °C 2 °C 1019.8 hPa Calm   3 km/h 58% 0.0 mm 262 W/m2
13:04 9 °C 2 °C 1019.7 hPa North 2 km/h 10 km/h 60% 0.0 mm 292 W/m2
13:09 9 °C 2 °C 1019.7 hPa North 2 km/h 6 km/h 60% 0.0 mm 341 W/m2
13:14 9 °C 3 °C 1019.7 hPa NNW 2 km/h 6 km/h 61% 0.0 mm 364 W/m2
13:19 10 °C 2 °C 1019.7 hPa WNW 4 km/h 11 km/h 59% 0.0 mm 371 W/m2
13:24 10 °C 2 °C 1019.8 hPa WNW 5 km/h 11 km/h 59% 0.0 mm 371 W/m2
13:29 10 °C 2 °C 1019.7 hPa WNW 5 km/h 11 km/h 59% 0.0 mm 346 W/m2
13:34 10 °C 2 °C 1019.7 hPa WNW 2 km/h 8 km/h 59% 0.0 mm 341 W/m2
13:39 10 °C 2 °C 1019.7 hPa NNW 3 km/h 11 km/h 59% 0.0 mm 355 W/m2
13:44 10 °C 2 °C 1019.7 hPa NNW 4 km/h 8 km/h 58% 0.0 mm 373 W/m2
13:49 10 °C 2 °C 1019.7 hPa NW 5 km/h 13 km/h 59% 0.0 mm 345 W/m2
13:54 10 °C 2 °C 1019.7 hPa NW 4 km/h 13 km/h 59% 0.0 mm 341 W/m2
13:59 10 °C 2 °C 1019.7 hPa Calm   6 km/h 58% 0.0 mm 343 W/m2
14:04 10 °C 2 °C 1019.6 hPa NW 1 km/h 8 km/h 58% 0.0 mm 346 W/m2
14:09 10 °C 3 °C 1019.6 hPa West 8 km/h 14 km/h 63% 0.0 mm 346 W/m2
14:14 10 °C 4 °C 1019.7 hPa West 9 km/h 16 km/h 66% 0.0 mm 431 W/m2
14:19 10 °C 4 °C 1019.7 hPa West 13 km/h 21 km/h 68% 0.0 mm 501 W/m2
14:24 10 °C 5 °C 1019.7 hPa West 12 km/h 21 km/h 70% 0.0 mm 765 W/m2
14:29 10 °C 4 °C 1019.7 hPa West 11 km/h 21 km/h 68% 0.0 mm 441 W/m2
14:34 10 °C 4 °C 1019.7 hPa West 8 km/h 14 km/h 69% 0.0 mm 350 W/m2
14:39 9 °C 4 °C 1019.7 hPa West 9 km/h 18 km/h 69% 0.0 mm 302 W/m2
14:44 9 °C 4 °C 1019.7 hPa WSW 9 km/h 16 km/h 69% 0.0 mm 422 W/m2
14:49 9 °C 4 °C 1019.7 hPa West 9 km/h 16 km/h 68% 0.0 mm 434 W/m2
14:54 10 °C 4 °C 1019.7 hPa West 6 km/h 11 km/h 68% 0.0 mm 450 W/m2
14:59 10 °C 5 °C 1019.7 hPa West 10 km/h 19 km/h 69% 0.0 mm 494 W/m2
15:04 11 °C 4 °C 1019.7 hPa WSW 7 km/h 18 km/h 68% 0.0 mm 483 W/m2
15:09 11 °C 4 °C 1019.7 hPa WSW 6 km/h 13 km/h 65% 0.0 mm 480 W/m2
15:14 11 °C 3 °C 1019.7 hPa West 5 km/h 10 km/h 62% 0.0 mm 374 W/m2
15:19 10 °C 3 °C 1019.6 hPa West 6 km/h 11 km/h 61% 0.0 mm 285 W/m2
15:24 10 °C 3 °C 1019.5 hPa West 4 km/h 11 km/h 62% 0.0 mm 199 W/m2
15:29 10 °C 3 °C 1019.5 hPa WNW 10 km/h 18 km/h 64% 0.0 mm 148 W/m2
15:34 9 °C 4 °C 1019.6 hPa WNW 9 km/h 18 km/h 67% 0.0 mm 199 W/m2
15:39 9 °C 4 °C 1019.6 hPa WNW 9 km/h 19 km/h 69% 0.0 mm 232 W/m2
15:44 9 °C 4 °C 1019.5 hPa NW 6 km/h 19 km/h 70% 0.0 mm 243 W/m2
15:49 9 °C 4 °C 1019.5 hPa WNW 5 km/h 11 km/h 70% 0.0 mm 239 W/m2
15:54 9 °C 4 °C 1019.5 hPa WNW 5 km/h 13 km/h 69% 0.0 mm 301 W/m2
15:59 9 °C 4 °C 1019.4 hPa WNW 3 km/h 8 km/h 68% 0.0 mm 267 W/m2
16:04 9 °C 4 °C 1019.3 hPa NW 4 km/h 10 km/h 68% 0.0 mm 244 W/m2
16:09 9 °C 4 °C 1019.2 hPa NNW 3 km/h 10 km/h 68% 0.0 mm 260 W/m2
16:14 9 °C 3 °C 1019.2 hPa NNW 4 km/h 8 km/h 66% 0.0 mm 325 W/m2
16:19 9 °C 4 °C 1019.1 hPa NW 4 km/h 11 km/h 66% 0.0 mm 318 W/m2
16:24 10 °C 4 °C 1019.0 hPa NNW 2 km/h 10 km/h 66% 0.0 mm 353 W/m2
16:29 10 °C 4 °C 1019.0 hPa North 1 km/h 8 km/h 66% 0.0 mm 369 W/m2
16:34 10 °C 4 °C 1019.0 hPa NNE 4 km/h 6 km/h 67% 0.0 mm 332 W/m2
16:39 11 °C 4 °C 1019.0 hPa North 3 km/h 8 km/h 65% 0.0 mm 547 W/m2
16:44 11 °C 4 °C 1018.9 hPa NW 4 km/h 13 km/h 64% 0.0 mm 587 W/m2
16:49 11 °C 4 °C 1018.9 hPa WNW 3 km/h 11 km/h 63% 0.0 mm 357 W/m2
16:54 11 °C 4 °C 1018.9 hPa WNW 2 km/h 8 km/h 63% 0.0 mm 288 W/m2
16:59 11 °C 4 °C 1018.8 hPa NNW 2 km/h 8 km/h 64% 0.0 mm 478 W/m2
17:04 11 °C 4 °C 1018.8 hPa NNE 2 km/h 8 km/h 64% 0.0 mm 478 W/m2
17:09 11 °C 4 °C 1018.7 hPa North 2 km/h 8 km/h 63% 0.0 mm 220 W/m2
17:14 11 °C 4 °C 1018.7 hPa NNE 1 km/h 6 km/h 64% 0.0 mm 220 W/m2
17:19 11 °C 4 °C 1018.7 hPa NNE 1 km/h 8 km/h 65% 0.0 mm 276 W/m2
17:24 11 °C 4 °C 1018.7 hPa North 2 km/h 11 km/h 66% 0.0 mm 441 W/m2
17:29 11 °C 3 °C 1018.7 hPa NNW 3 km/h 11 km/h 60% 0.0 mm 443 W/m2
17:34 11 °C 3 °C 1018.6 hPa NW 7 km/h 18 km/h 59% 0.0 mm 432 W/m2
17:39 11 °C 3 °C 1018.7 hPa WNW 8 km/h 18 km/h 56% 0.0 mm 278 W/m2
17:44 11 °C 2 °C 1018.7 hPa WNW 7 km/h 16 km/h 56% 0.0 mm 431 W/m2
17:49 11 °C 3 °C 1018.7 hPa WNW 4 km/h 11 km/h 58% 0.0 mm 431 W/m2
17:54 11 °C 3 °C 1018.7 hPa NW 4 km/h 11 km/h 58% 0.0 mm 339 W/m2
17:59 11 °C 2 °C 1018.7 hPa NW 6 km/h 11 km/h 56% 0.0 mm 155 W/m2
18:04 11 °C 3 °C 1018.6 hPa NW 3 km/h 11 km/h 58% 0.0 mm 128 W/m2
18:09 10 °C 3 °C 1018.6 hPa NW 5 km/h 10 km/h 59% 0.0 mm 118 W/m2
18:14 10 °C 3 °C 1018.6 hPa NNW 2 km/h 8 km/h 60% 0.0 mm 111 W/m2
18:19 10 °C 3 °C 1018.5 hPa NW 5 km/h 10 km/h 60% 0.0 mm 113 W/m2
18:24 10 °C 3 °C 1018.5 hPa WNW 5 km/h 11 km/h 61% 0.0 mm 98 W/m2
18:29 10 °C 3 °C 1018.6 hPa NNW 4 km/h 10 km/h 61% 0.0 mm 76 W/m2
18:34 9 °C 3 °C 1018.6 hPa NNW 2 km/h 8 km/h 61% 0.0 mm 49 W/m2
18:39 9 °C 3 °C 1018.6 hPa NNW 1 km/h 6 km/h 62% 0.0 mm 33 W/m2
18:44 9 °C 3 °C 1018.6 hPa NNW 1 km/h 6 km/h 62% 0.0 mm 25 W/m2
18:49 9 °C 3 °C 1018.6 hPa NNW 1 km/h 6 km/h 63% 0.0 mm 23 W/m2
18:54 9 °C 3 °C 1018.7 hPa Calm   5 km/h 67% 0.0 mm 21 W/m2
18:59 9 °C 4 °C 1018.8 hPa East 5 km/h 13 km/h 70% 0.0 mm 23 W/m2
19:04 9 °C 4 °C 1018.8 hPa ENE 4 km/h 13 km/h 73% 0.0 mm 28 W/m2
19:09 9 °C 4 °C 1018.8 hPa ENE 5 km/h 8 km/h 75% 0.0 mm 40 W/m2
19:14 8 °C 4 °C 1018.8 hPa East 6 km/h 14 km/h 76% 0.0 mm 40 W/m2
19:19 8 °C 4 °C 1018.8 hPa East 7 km/h 14 km/h 77% 0.0 mm 35 W/m2
19:24 8 °C 4 °C 1018.8 hPa East 7 km/h 13 km/h 78% 0.0 mm 26 W/m2
19:29 8 °C 4 °C 1018.8 hPa East 7 km/h 11 km/h 79% 0.0 mm 26 W/m2
19:34 8 °C 4 °C 1018.8 hPa East 6 km/h 11 km/h 80% 0.0 mm 23 W/m2
19:39 7 °C 4 °C 1018.8 hPa East 6 km/h 13 km/h 80% 0.0 mm 21 W/m2
19:44 7 °C 4 °C 1018.9 hPa East 6 km/h 14 km/h 81% 0.0 mm 21 W/m2
19:49 7 °C 4 °C 1018.9 hPa East 7 km/h 14 km/h 82% 0.0 mm 19 W/m2
19:54 7 °C 4 °C 1018.9 hPa East 5 km/h 11 km/h 82% 0.0 mm 19 W/m2
19:59 7 °C 4 °C 1018.9 hPa East 4 km/h 10 km/h 83% 0.0 mm 19 W/m2
20:04 7 °C 4 °C 1019.0 hPa East 6 km/h 10 km/h 83% 0.0 mm 19 W/m2
20:09 7 °C 4 °C 1019.0 hPa East 7 km/h 13 km/h 83% 0.0 mm 18 W/m2
20:14 7 °C 4 °C 1019.0 hPa East 8 km/h 11 km/h 83% 0.0 mm 16 W/m2
20:19 7 °C 4 °C 1019.0 hPa East 9 km/h 13 km/h 83% 0.0 mm 14 W/m2
20:24 7 °C 4 °C 1019.0 hPa ESE 7 km/h 11 km/h 83% 0.0 mm 11 W/m2
20:29 7 °C 4 °C 1019.0 hPa East 9 km/h 14 km/h 84% 0.0 mm 7 W/m2
20:34 7 °C 4 °C 1019.0 hPa East 8 km/h 14 km/h 84% 0.0 mm 5 W/m2
20:39 6 °C 4 °C 1019.0 hPa East 7 km/h 13 km/h 84% 0.0 mm 0 W/m2
20:44 6 °C 4 °C 1019.0 hPa East 6 km/h 11 km/h 85% 0.0 mm 0 W/m2
20:49 6 °C 4 °C 1019.1 hPa East 6 km/h 10 km/h 85% 0.0 mm 0 W/m2
20:54 6 °C 4 °C 1019.1 hPa East 4 km/h 10 km/h 85% 0.0 mm 0 W/m2
20:59 6 °C 4 °C 1019.2 hPa East 6 km/h 8 km/h 86% 0.0 mm 0 W/m2
21:04 6 °C 4 °C 1019.2 hPa East 5 km/h 11 km/h 86% 0.0 mm 0 W/m2
21:09 6 °C 4 °C 1019.2 hPa East 5 km/h 8 km/h 86% 0.0 mm 0 W/m2
21:14 6 °C 4 °C 1019.2 hPa East 5 km/h 8 km/h 87% 0.0 mm 0 W/m2
21:19 6 °C 4 °C 1019.2 hPa East 6 km/h 11 km/h 87% 0.0 mm 0 W/m2
21:24 6 °C 4 °C 1019.1 hPa East 7 km/h 11 km/h 87% 0.0 mm 0 W/m2
21:29 6 °C 4 °C 1019.1 hPa East 6 km/h 10 km/h 88% 0.0 mm 0 W/m2
21:34 6 °C 4 °C 1019.1 hPa East 6 km/h 11 km/h 88% 0.0 mm 0 W/m2
21:39 6 °C 4 °C 1019.1 hPa East 7 km/h 11 km/h 88% 0.0 mm 0 W/m2
21:44 6 °C 4 °C 1019.2 hPa East 8 km/h 11 km/h 88% 0.0 mm 0 W/m2
21:49 6 °C 4 °C 1019.2 hPa East 6 km/h 10 km/h 89% 0.0 mm 0 W/m2
21:54 6 °C 4 °C 1019.2 hPa East 9 km/h 13 km/h 89% 0.0 mm 0 W/m2
21:59 6 °C 4 °C 1019.1 hPa ESE 8 km/h 13 km/h 89% 0.0 mm 0 W/m2
22:04 6 °C 4 °C 1019.0 hPa East 8 km/h 14 km/h 89% 0.0 mm 0 W/m2
22:09 6 °C 4 °C 1018.9 hPa East 6 km/h 13 km/h 89% 0.0 mm 0 W/m2
22:14 6 °C 4 °C 1018.9 hPa East 7 km/h 10 km/h 89% 0.0 mm 0 W/m2
22:19 6 °C 4 °C 1018.9 hPa East 9 km/h 13 km/h 89% 0.0 mm 0 W/m2
22:24 6 °C 4 °C 1018.9 hPa East 5 km/h 11 km/h 89% 0.0 mm 0 W/m2
22:29 6 °C 4 °C 1018.9 hPa East 6 km/h 10 km/h 89% 0.0 mm 0 W/m2
22:34 6 °C 4 °C 1018.8 hPa East 6 km/h 10 km/h 89% 0.0 mm 0 W/m2
22:39 6 °C 4 °C 1018.7 hPa East 6 km/h 10 km/h 89% 0.0 mm 0 W/m2
22:44 6 °C 4 °C 1018.7 hPa East 5 km/h 10 km/h 89% 0.0 mm 0 W/m2
22:49 6 °C 4 °C 1018.6 hPa East 6 km/h 10 km/h 90% 0.0 mm 0 W/m2
22:54 6 °C 4 °C 1018.6 hPa East 5 km/h 10 km/h 90% 0.0 mm 0 W/m2
22:59 6 °C 4 °C 1018.6 hPa East 6 km/h 10 km/h 90% 0.0 mm 0 W/m2
23:04 6 °C 4 °C 1018.6 hPa East 6 km/h 8 km/h 90% 0.0 mm 0 W/m2
23:09 6 °C 4 °C 1018.5 hPa East 6 km/h 10 km/h 90% 0.0 mm 0 W/m2
23:14 6 °C 4 °C 1018.5 hPa East 5 km/h 8 km/h 90% 0.0 mm 0 W/m2
23:19 6 °C 4 °C 1018.5 hPa East 4 km/h 6 km/h 90% 0.0 mm 0 W/m2
23:24 6 °C 4 °C 1018.5 hPa East 3 km/h 10 km/h 90% 0.0 mm 0 W/m2
23:29 6 °C 4 °C 1018.4 hPa East 4 km/h 10 km/h 90% 0.0 mm 0 W/m2
23:34 6 °C 4 °C 1018.3 hPa East 3 km/h 10 km/h 90% 0.0 mm 0 W/m2
23:39 6 °C 4 °C 1018.3 hPa East 1 km/h 6 km/h 90% 0.0 mm 0 W/m2
23:44 6 °C 4 °C 1018.2 hPa East 1 km/h 6 km/h 90% 0.0 mm 0 W/m2
23:49 5 °C 4 °C 1018.2 hPa Calm   3 km/h 90% 0.0 mm 0 W/m2
23:54 5 °C 4 °C 1018.2 hPa Calm     90% 0.0 mm 0 W/m2
23:59 5 °C 4 °C 1018.2 hPa Calm     90% 0.0 mm 0 W/m2
Compliments of Weather Underground - 4.25 mb